sensor_id;sensor_type;location;lat;lon;timestamp;P1;durP1;ratioP1;P2;durP2;ratioP2
10134;SDS011;5107;48.850;8.924;2024-02-26T00:01:55;3.00;;;2.00;;
10134;SDS011;5107;48.850;8.924;2024-02-26T00:04:20;3.37;;;2.37;;
10134;SDS011;5107;48.850;8.924;2024-02-26T00:06:46;3.20;;;2.10;;
10134;SDS011;5107;48.850;8.924;2024-02-26T00:09:13;4.40;;;2.40;;
10134;SDS011;5107;48.850;8.924;2024-02-26T00:11:38;3.07;;;2.33;;
10134;SDS011;5107;48.850;8.924;2024-02-26T00:14:04;2.93;;;2.63;;
10134;SDS011;5107;48.850;8.924;2024-02-26T00:16:29;2.90;;;2.37;;
10134;SDS011;5107;48.850;8.924;2024-02-26T00:18:55;2.40;;;2.10;;
10134;SDS011;5107;48.850;8.924;2024-02-26T00:21:20;3.10;;;2.20;;
10134;SDS011;5107;48.850;8.924;2024-02-26T00:23:45;2.83;;;2.30;;
10134;SDS011;5107;48.850;8.924;2024-02-26T00:26:11;2.40;;;2.20;;
10134;SDS011;5107;48.850;8.924;2024-02-26T00:28:36;2.90;;;2.07;;
10134;SDS011;5107;48.850;8.924;2024-02-26T00:31:02;2.87;;;2.40;;
10134;SDS011;5107;48.850;8.924;2024-02-26T00:33:30;2.53;;;2.27;;
10134;SDS011;5107;48.850;8.924;2024-02-26T00:35:56;3.17;;;2.20;;
10134;SDS011;5107;48.850;8.924;2024-02-26T00:38:21;2.40;;;2.10;;
10134;SDS011;5107;48.850;8.924;2024-02-26T00:40:46;2.40;;;2.20;;
10134;SDS011;5107;48.850;8.924;2024-02-26T00:43:11;4.10;;;2.30;;
10134;SDS011;5107;48.850;8.924;2024-02-26T00:45:37;3.83;;;2.20;;
10134;SDS011;5107;48.850;8.924;2024-02-26T00:48:02;4.10;;;2.40;;
10134;SDS011;5107;48.850;8.924;2024-02-26T00:50:33;2.50;;;2.30;;
10134;SDS011;5107;48.850;8.924;2024-02-26T00:52:59;2.67;;;2.20;;
10134;SDS011;5107;48.850;8.924;2024-02-26T00:55:25;2.20;;;2.00;;
10134;SDS011;5107;48.850;8.924;2024-02-26T00:57:51;3.67;;;2.20;;
10134;SDS011;5107;48.850;8.924;2024-02-26T01:00:16;2.83;;;2.03;;
10134;SDS011;5107;48.850;8.924;2024-02-26T01:02:42;2.20;;;2.00;;
10134;SDS011;5107;48.850;8.924;2024-02-26T01:05:07;2.90;;;2.10;;
10134;SDS011;5107;48.850;8.924;2024-02-26T01:07:36;2.43;;;2.03;;
10134;SDS011;5107;48.850;8.924;2024-02-26T01:10:02;2.53;;;2.20;;
10134;SDS011;5107;48.850;8.924;2024-02-26T01:12:28;2.77;;;2.10;;
10134;SDS011;5107;48.850;8.924;2024-02-26T01:14:53;2.53;;;2.10;;
10134;SDS011;5107;48.850;8.924;2024-02-26T01:17:18;3.00;;;2.20;;
10134;SDS011;5107;48.850;8.924;2024-02-26T01:19:44;4.87;;;2.20;;
10134;SDS011;5107;48.850;8.924;2024-02-26T01:22:09;2.40;;;2.10;;
10134;SDS011;5107;48.850;8.924;2024-02-26T01:24:35;2.83;;;1.90;;
10134;SDS011;5107;48.850;8.924;2024-02-26T01:27:00;2.43;;;2.00;;
10134;SDS011;5107;48.850;8.924;2024-02-26T01:29:26;3.57;;;2.10;;
10134;SDS011;5107;48.850;8.924;2024-02-26T01:31:51;2.20;;;1.83;;
10134;SDS011;5107;48.850;8.924;2024-02-26T01:34:16;2.73;;;2.10;;
10134;SDS011;5107;48.850;8.924;2024-02-26T01:36:43;2.50;;;2.00;;
10134;SDS011;5107;48.850;8.924;2024-02-26T01:39:08;2.83;;;1.93;;
10134;SDS011;5107;48.850;8.924;2024-02-26T01:41:37;3.03;;;2.30;;
10134;SDS011;5107;48.850;8.924;2024-02-26T01:44:02;2.90;;;2.40;;
10134;SDS011;5107;48.850;8.924;2024-02-26T01:46:27;3.63;;;1.90;;
10134;SDS011;5107;48.850;8.924;2024-02-26T01:48:54;2.73;;;2.00;;
10134;SDS011;5107;48.850;8.924;2024-02-26T01:51:20;2.93;;;2.10;;
10134;SDS011;5107;48.850;8.924;2024-02-26T01:53:45;3.30;;;2.20;;
10134;SDS011;5107;48.850;8.924;2024-02-26T01:56:11;2.47;;;2.07;;
10134;SDS011;5107;48.850;8.924;2024-02-26T01:58:37;2.00;;;1.90;;
10134;SDS011;5107;48.850;8.924;2024-02-26T02:01:03;2.07;;;1.87;;
10134;SDS011;5107;48.850;8.924;2024-02-26T02:03:29;2.60;;;1.90;;
10134;SDS011;5107;48.850;8.924;2024-02-26T02:05:55;2.23;;;1.67;;
10134;SDS011;5107;48.850;8.924;2024-02-26T02:08:20;2.27;;;1.80;;
10134;SDS011;5107;48.850;8.924;2024-02-26T02:10:47;2.13;;;1.93;;
10134;SDS011;5107;48.850;8.924;2024-02-26T02:13:14;3.40;;;2.23;;
10134;SDS011;5107;48.850;8.924;2024-02-26T02:15:39;2.53;;;2.17;;
10134;SDS011;5107;48.850;8.924;2024-02-26T02:18:05;2.20;;;2.00;;
10134;SDS011;5107;48.850;8.924;2024-02-26T02:20:31;2.33;;;1.90;;
10134;SDS011;5107;48.850;8.924;2024-02-26T02:22:58;2.20;;;1.90;;
10134;SDS011;5107;48.850;8.924;2024-02-26T02:25:23;3.20;;;2.30;;
10134;SDS011;5107;48.850;8.924;2024-02-26T02:27:48;4.43;;;2.13;;
10134;SDS011;5107;48.850;8.924;2024-02-26T02:30:14;3.03;;;2.17;;
10134;SDS011;5107;48.850;8.924;2024-02-26T02:32:41;3.37;;;1.93;;
10134;SDS011;5107;48.850;8.924;2024-02-26T02:35:07;2.03;;;1.80;;
10134;SDS011;5107;48.850;8.924;2024-02-26T02:37:32;3.00;;;1.67;;
10134;SDS011;5107;48.850;8.924;2024-02-26T02:39:58;1.50;;;1.40;;
10134;SDS011;5107;48.850;8.924;2024-02-26T02:42:23;2.10;;;1.60;;
10134;SDS011;5107;48.850;8.924;2024-02-26T02:44:49;2.70;;;1.60;;
10134;SDS011;5107;48.850;8.924;2024-02-26T02:47:14;1.60;;;1.50;;
10134;SDS011;5107;48.850;8.924;2024-02-26T02:49:39;1.87;;;1.63;;
10134;SDS011;5107;48.850;8.924;2024-02-26T02:52:05;1.20;;;1.10;;
10134;SDS011;5107;48.850;8.924;2024-02-26T02:54:30;1.33;;;1.23;;
10134;SDS011;5107;48.850;8.924;2024-02-26T02:56:56;2.23;;;1.10;;
10134;SDS011;5107;48.850;8.924;2024-02-26T02:59:21;2.20;;;1.10;;
10134;SDS011;5107;48.850;8.924;2024-02-26T03:01:46;1.10;;;1.00;;
10134;SDS011;5107;48.850;8.924;2024-02-26T03:04:12;0.90;;;0.90;;
10134;SDS011;5107;48.850;8.924;2024-02-26T03:06:37;1.00;;;0.90;;
10134;SDS011;5107;48.850;8.924;2024-02-26T03:09:02;0.90;;;0.90;;
10134;SDS011;5107;48.850;8.924;2024-02-26T03:11:28;2.73;;;1.17;;
10134;SDS011;5107;48.850;8.924;2024-02-26T03:13:53;1.43;;;1.10;;
10134;SDS011;5107;48.850;8.924;2024-02-26T03:16:18;1.10;;;1.00;;
10134;SDS011;5107;48.850;8.924;2024-02-26T03:18:44;1.23;;;1.10;;
10134;SDS011;5107;48.850;8.924;2024-02-26T03:21:09;1.20;;;1.10;;
10134;SDS011;5107;48.850;8.924;2024-02-26T03:23:34;1.10;;;1.03;;
10134;SDS011;5107;48.850;8.924;2024-02-26T03:26:03;1.13;;;1.03;;
10134;SDS011;5107;48.850;8.924;2024-02-26T03:28:29;1.00;;;0.97;;
10134;SDS011;5107;48.850;8.924;2024-02-26T03:30:55;1.00;;;1.00;;
10134;SDS011;5107;48.850;8.924;2024-02-26T03:33:21;1.03;;;0.90;;
10134;SDS011;5107;48.850;8.924;2024-02-26T03:35:46;1.00;;;0.57;;
10134;SDS011;5107;48.850;8.924;2024-02-26T03:38:13;0.93;;;0.90;;
10134;SDS011;5107;48.850;8.924;2024-02-26T03:40:38;0.83;;;0.83;;
10134;SDS011;5107;48.850;8.924;2024-02-26T03:43:04;0.60;;;0.60;;
10134;SDS011;5107;48.850;8.924;2024-02-26T03:45:32;1.27;;;0.80;;
10134;SDS011;5107;48.850;8.924;2024-02-26T03:47:57;1.10;;;0.90;;
10134;SDS011;5107;48.850;8.924;2024-02-26T03:50:22;0.70;;;0.70;;
10134;SDS011;5107;48.850;8.924;2024-02-26T03:52:48;0.70;;;0.70;;
10134;SDS011;5107;48.850;8.924;2024-02-26T03:55:13;0.87;;;0.80;;
10134;SDS011;5107;48.850;8.924;2024-02-26T03:57:39;0.63;;;0.63;;
10134;SDS011;5107;48.850;8.924;2024-02-26T04:00:05;0.63;;;0.60;;
10134;SDS011;5107;48.850;8.924;2024-02-26T04:02:31;0.73;;;0.70;;
10134;SDS011;5107;48.850;8.924;2024-02-26T04:04:56;0.77;;;0.77;;
10134;SDS011;5107;48.850;8.924;2024-02-26T04:07:22;0.80;;;0.80;;
10134;SDS011;5107;48.850;8.924;2024-02-26T04:09:47;1.30;;;0.80;;
10134;SDS011;5107;48.850;8.924;2024-02-26T04:12:12;1.27;;;0.87;;
10134;SDS011;5107;48.850;8.924;2024-02-26T04:14:38;0.70;;;0.70;;
10134;SDS011;5107;48.850;8.924;2024-02-26T04:17:03;1.00;;;0.90;;
10134;SDS011;5107;48.850;8.924;2024-02-26T04:19:29;0.80;;;0.80;;
10134;SDS011;5107;48.850;8.924;2024-02-26T04:21:54;0.97;;;0.87;;
10134;SDS011;5107;48.850;8.924;2024-02-26T04:24:20;1.00;;;0.60;;
10134;SDS011;5107;48.850;8.924;2024-02-26T04:26:45;0.80;;;0.80;;
10134;SDS011;5107;48.850;8.924;2024-02-26T04:29:10;0.90;;;0.90;;
10134;SDS011;5107;48.850;8.924;2024-02-26T04:31:37;0.83;;;0.83;;
10134;SDS011;5107;48.850;8.924;2024-02-26T04:34:02;0.80;;;0.80;;
10134;SDS011;5107;48.850;8.924;2024-02-26T04:36:28;0.90;;;0.90;;
10134;SDS011;5107;48.850;8.924;2024-02-26T04:38:53;1.00;;;0.90;;
10134;SDS011;5107;48.850;8.924;2024-02-26T04:41:20;0.87;;;0.87;;
10134;SDS011;5107;48.850;8.924;2024-02-26T04:43:46;1.30;;;1.20;;
10134;SDS011;5107;48.850;8.924;2024-02-26T04:46:11;1.10;;;1.00;;
10134;SDS011;5107;48.850;8.924;2024-02-26T04:48:37;1.10;;;1.00;;
10134;SDS011;5107;48.850;8.924;2024-02-26T04:51:03;1.67;;;1.20;;
10134;SDS011;5107;48.850;8.924;2024-02-26T04:53:29;1.03;;;1.00;;
10134;SDS011;5107;48.850;8.924;2024-02-26T04:55:54;1.37;;;1.07;;
10134;SDS011;5107;48.850;8.924;2024-02-26T04:58:19;0.97;;;0.90;;
10134;SDS011;5107;48.850;8.924;2024-02-26T05:00:45;1.50;;;1.27;;
10134;SDS011;5107;48.850;8.924;2024-02-26T05:03:10;1.10;;;1.00;;
10134;SDS011;5107;48.850;8.924;2024-02-26T05:05:38;1.10;;;0.93;;
10134;SDS011;5107;48.850;8.924;2024-02-26T05:08:04;1.07;;;1.07;;
10134;SDS011;5107;48.850;8.924;2024-02-26T05:10:30;1.20;;;1.10;;
10134;SDS011;5107;48.850;8.924;2024-02-26T05:12:55;1.30;;;1.20;;
10134;SDS011;5107;48.850;8.924;2024-02-26T05:15:20;2.20;;;1.50;;
10134;SDS011;5107;48.850;8.924;2024-02-26T05:17:46;2.70;;;1.87;;
10134;SDS011;5107;48.850;8.924;2024-02-26T05:20:11;2.90;;;2.00;;
10134;SDS011;5107;48.850;8.924;2024-02-26T05:22:36;2.70;;;2.10;;
10134;SDS011;5107;48.850;8.924;2024-02-26T05:25:02;2.40;;;1.73;;
10134;SDS011;5107;48.850;8.924;2024-02-26T05:27:28;3.17;;;1.90;;
10134;SDS011;5107;48.850;8.924;2024-02-26T05:29:53;2.60;;;1.93;;
10134;SDS011;5107;48.850;8.924;2024-02-26T05:32:19;2.90;;;2.23;;
10134;SDS011;5107;48.850;8.924;2024-02-26T05:34:44;4.10;;;2.47;;
10134;SDS011;5107;48.850;8.924;2024-02-26T05:37:10;2.87;;;2.50;;
10134;SDS011;5107;48.850;8.924;2024-02-26T05:39:36;2.83;;;2.30;;
10134;SDS011;5107;48.850;8.924;2024-02-26T05:42:01;2.37;;;2.17;;
10134;SDS011;5107;48.850;8.924;2024-02-26T05:44:27;3.13;;;2.83;;
10134;SDS011;5107;48.850;8.924;2024-02-26T05:46:52;3.73;;;2.97;;
10134;SDS011;5107;48.850;8.924;2024-02-26T05:49:18;3.40;;;1.90;;
10134;SDS011;5107;48.850;8.924;2024-02-26T05:51:43;1.80;;;1.50;;
10134;SDS011;5107;48.850;8.924;2024-02-26T05:54:09;1.27;;;1.17;;
10134;SDS011;5107;48.850;8.924;2024-02-26T05:56:35;2.30;;;1.80;;
10134;SDS011;5107;48.850;8.924;2024-02-26T05:59:00;1.90;;;1.63;;
10134;SDS011;5107;48.850;8.924;2024-02-26T06:01:25;2.77;;;2.03;;
10134;SDS011;5107;48.850;8.924;2024-02-26T06:03:51;3.47;;;2.70;;
10134;SDS011;5107;48.850;8.924;2024-02-26T06:06:16;7.27;;;5.00;;
10134;SDS011;5107;48.850;8.924;2024-02-26T06:08:42;3.47;;;2.50;;
10134;SDS011;5107;48.850;8.924;2024-02-26T06:11:08;2.60;;;2.10;;
10134;SDS011;5107;48.850;8.924;2024-02-26T06:13:34;1.77;;;1.50;;
10134;SDS011;5107;48.850;8.924;2024-02-26T06:16:00;2.00;;;1.83;;
10134;SDS011;5107;48.850;8.924;2024-02-26T06:18:25;1.40;;;1.27;;
10134;SDS011;5107;48.850;8.924;2024-02-26T06:20:51;1.80;;;1.20;;
10134;SDS011;5107;48.850;8.924;2024-02-26T06:23:16;1.37;;;1.27;;
10134;SDS011;5107;48.850;8.924;2024-02-26T06:25:41;2.73;;;1.73;;
10134;SDS011;5107;48.850;8.924;2024-02-26T06:28:08;1.73;;;1.40;;
10134;SDS011;5107;48.850;8.924;2024-02-26T06:30:33;1.47;;;1.37;;
10134;SDS011;5107;48.850;8.924;2024-02-26T06:32:59;1.20;;;1.10;;
10134;SDS011;5107;48.850;8.924;2024-02-26T06:35:24;2.13;;;1.63;;
10134;SDS011;5107;48.850;8.924;2024-02-26T06:37:50;2.03;;;1.57;;
10134;SDS011;5107;48.850;8.924;2024-02-26T06:40:17;2.23;;;1.50;;
10134;SDS011;5107;48.850;8.924;2024-02-26T06:42:44;2.17;;;1.97;;
10134;SDS011;5107;48.850;8.924;2024-02-26T06:45:09;3.70;;;1.90;;
10134;SDS011;5107;48.850;8.924;2024-02-26T06:47:34;2.30;;;1.70;;
10134;SDS011;5107;48.850;8.924;2024-02-26T06:50:00;1.50;;;1.37;;
10134;SDS011;5107;48.850;8.924;2024-02-26T06:52:26;1.67;;;1.50;;
10134;SDS011;5107;48.850;8.924;2024-02-26T06:54:52;1.90;;;1.30;;
10134;SDS011;5107;48.850;8.924;2024-02-26T06:57:18;1.47;;;1.27;;
10134;SDS011;5107;48.850;8.924;2024-02-26T06:59:44;1.50;;;1.40;;
10134;SDS011;5107;48.850;8.924;2024-02-26T07:02:12;1.60;;;1.50;;
10134;SDS011;5107;48.850;8.924;2024-02-26T07:04:37;1.50;;;1.23;;
10134;SDS011;5107;48.850;8.924;2024-02-26T07:07:02;1.60;;;1.50;;
10134;SDS011;5107;48.850;8.924;2024-02-26T07:09:28;2.80;;;1.70;;
10134;SDS011;5107;48.850;8.924;2024-02-26T07:11:53;5.17;;;1.50;;
10134;SDS011;5107;48.850;8.924;2024-02-26T07:14:19;1.50;;;1.40;;
10134;SDS011;5107;48.850;8.924;2024-02-26T07:16:44;1.23;;;1.13;;
10134;SDS011;5107;48.850;8.924;2024-02-26T07:19:09;1.80;;;1.43;;
10134;SDS011;5107;48.850;8.924;2024-02-26T07:21:35;1.70;;;1.60;;
10134;SDS011;5107;48.850;8.924;2024-02-26T07:24:00;1.50;;;1.40;;
10134;SDS011;5107;48.850;8.924;2024-02-26T07:26:25;1.63;;;1.50;;
10134;SDS011;5107;48.850;8.924;2024-02-26T07:28:51;2.00;;;1.33;;
10134;SDS011;5107;48.850;8.924;2024-02-26T07:31:19;2.03;;;1.60;;
10134;SDS011;5107;48.850;8.924;2024-02-26T07:33:44;1.63;;;1.40;;
10134;SDS011;5107;48.850;8.924;2024-02-26T07:36:10;1.20;;;1.10;;
10134;SDS011;5107;48.850;8.924;2024-02-26T07:38:36;1.60;;;1.50;;
10134;SDS011;5107;48.850;8.924;2024-02-26T07:41:02;1.63;;;1.17;;
10134;SDS011;5107;48.850;8.924;2024-02-26T07:43:28;12.43;;;5.97;;
10134;SDS011;5107;48.850;8.924;2024-02-26T07:45:53;3.47;;;2.70;;
10134;SDS011;5107;48.850;8.924;2024-02-26T07:48:18;2.07;;;1.60;;
10134;SDS011;5107;48.850;8.924;2024-02-26T07:50:44;3.23;;;1.60;;
10134;SDS011;5107;48.850;8.924;2024-02-26T07:53:09;1.80;;;1.37;;
10134;SDS011;5107;48.850;8.924;2024-02-26T07:55:34;1.50;;;1.40;;
10134;SDS011;5107;48.850;8.924;2024-02-26T07:58:00;2.03;;;1.27;;
10134;SDS011;5107;48.850;8.924;2024-02-26T08:00:25;1.47;;;1.37;;
10134;SDS011;5107;48.850;8.924;2024-02-26T08:02:50;1.93;;;1.50;;
10134;SDS011;5107;48.850;8.924;2024-02-26T08:05:16;1.30;;;1.20;;
10134;SDS011;5107;48.850;8.924;2024-02-26T08:07:41;2.03;;;1.43;;
10134;SDS011;5107;48.850;8.924;2024-02-26T08:10:06;1.40;;;1.30;;
10134;SDS011;5107;48.850;8.924;2024-02-26T08:12:32;1.33;;;1.23;;
10134;SDS011;5107;48.850;8.924;2024-02-26T08:14:58;1.90;;;1.23;;
10134;SDS011;5107;48.850;8.924;2024-02-26T08:17:24;0.90;;;0.90;;
10134;SDS011;5107;48.850;8.924;2024-02-26T08:19:49;1.60;;;1.20;;
10134;SDS011;5107;48.850;8.924;2024-02-26T08:22:14;2.17;;;1.17;;
10134;SDS011;5107;48.850;8.924;2024-02-26T08:24:43;2.10;;;1.40;;
10134;SDS011;5107;48.850;8.924;2024-02-26T08:27:08;1.43;;;1.20;;
10134;SDS011;5107;48.850;8.924;2024-02-26T08:29:34;1.93;;;1.40;;
10134;SDS011;5107;48.850;8.924;2024-02-26T08:31:59;1.07;;;1.00;;
10134;SDS011;5107;48.850;8.924;2024-02-26T08:34:25;1.63;;;1.30;;
10134;SDS011;5107;48.850;8.924;2024-02-26T08:36:50;1.77;;;1.00;;
10134;SDS011;5107;48.850;8.924;2024-02-26T08:39:16;1.20;;;1.07;;
10134;SDS011;5107;48.850;8.924;2024-02-26T08:41:42;2.37;;;1.37;;
10134;SDS011;5107;48.850;8.924;2024-02-26T08:44:08;1.60;;;1.50;;
10134;SDS011;5107;48.850;8.924;2024-02-26T08:46:34;2.07;;;1.60;;
10134;SDS011;5107;48.850;8.924;2024-02-26T08:48:59;3.13;;;1.53;;
10134;SDS011;5107;48.850;8.924;2024-02-26T08:51:25;2.23;;;1.60;;
10134;SDS011;5107;48.850;8.924;2024-02-26T08:53:50;1.57;;;1.13;;
10134;SDS011;5107;48.850;8.924;2024-02-26T08:56:16;1.83;;;1.47;;
10134;SDS011;5107;48.850;8.924;2024-02-26T08:58:42;2.30;;;1.30;;
10134;SDS011;5107;48.850;8.924;2024-02-26T09:01:08;1.43;;;1.30;;
10134;SDS011;5107;48.850;8.924;2024-02-26T09:03:34;1.43;;;1.33;;
10134;SDS011;5107;48.850;8.924;2024-02-26T09:05:59;1.30;;;1.20;;
10134;SDS011;5107;48.850;8.924;2024-02-26T09:08:24;1.60;;;1.30;;
10134;SDS011;5107;48.850;8.924;2024-02-26T09:10:50;2.20;;;1.40;;
10134;SDS011;5107;48.850;8.924;2024-02-26T09:13:15;2.00;;;1.70;;
10134;SDS011;5107;48.850;8.924;2024-02-26T09:15:40;3.13;;;1.70;;
10134;SDS011;5107;48.850;8.924;2024-02-26T09:18:06;3.07;;;1.50;;
10134;SDS011;5107;48.850;8.924;2024-02-26T09:23:55;2.37;;;1.60;;
10134;SDS011;5107;48.850;8.924;2024-02-26T09:26:28;1.50;;;1.40;;
10134;SDS011;5107;48.850;8.924;2024-02-26T09:28:59;1.87;;;1.43;;
10134;SDS011;5107;48.850;8.924;2024-02-26T09:31:25;3.53;;;1.87;;
10134;SDS011;5107;48.850;8.924;2024-02-26T09:33:53;2.00;;;1.47;;
10134;SDS011;5107;48.850;8.924;2024-02-26T09:36:19;3.23;;;2.40;;
10134;SDS011;5107;48.850;8.924;2024-02-26T09:38:44;4.23;;;2.50;;
10134;SDS011;5107;48.850;8.924;2024-02-26T09:41:14;3.37;;;2.10;;
10134;SDS011;5107;48.850;8.924;2024-02-26T09:43:41;6.33;;;2.70;;
10134;SDS011;5107;48.850;8.924;2024-02-26T09:46:12;4.63;;;2.90;;
10134;SDS011;5107;48.850;8.924;2024-02-26T09:51:15;4.10;;;2.70;;
10134;SDS011;5107;48.850;8.924;2024-02-26T09:53:43;3.67;;;2.70;;
10134;SDS011;5107;48.850;8.924;2024-02-26T10:02:43;5.83;;;2.30;;
10134;SDS011;5107;48.850;8.924;2024-02-26T10:05:10;3.77;;;2.23;;
10134;SDS011;5107;48.850;8.924;2024-02-26T10:08:00;2.83;;;2.00;;
10134;SDS011;5107;48.850;8.924;2024-02-26T10:10:33;3.23;;;2.17;;
10134;SDS011;5107;48.850;8.924;2024-02-26T10:12:59;4.17;;;2.13;;
10134;SDS011;5107;48.850;8.924;2024-02-26T10:15:28;2.63;;;2.10;;
10134;SDS011;5107;48.850;8.924;2024-02-26T10:18:00;2.53;;;2.07;;
10134;SDS011;5107;48.850;8.924;2024-02-26T10:20:38;3.93;;;1.93;;
10134;SDS011;5107;48.850;8.924;2024-02-26T10:23:03;4.03;;;2.23;;
10134;SDS011;5107;48.850;8.924;2024-02-26T10:25:30;3.70;;;2.70;;
10134;SDS011;5107;48.850;8.924;2024-02-26T10:27:59;4.17;;;2.27;;
10134;SDS011;5107;48.850;8.924;2024-02-26T10:36:33;5.17;;;2.73;;
10134;SDS011;5107;48.850;8.924;2024-02-26T10:42:26;5.73;;;3.03;;
10134;SDS011;5107;48.850;8.924;2024-02-26T10:44:59;6.40;;;3.03;;
10134;SDS011;5107;48.850;8.924;2024-02-26T10:50:50;6.97;;;3.20;;
10134;SDS011;5107;48.850;8.924;2024-02-26T10:53:44;6.37;;;3.60;;
10134;SDS011;5107;48.850;8.924;2024-02-26T10:56:25;5.00;;;3.10;;
10134;SDS011;5107;48.850;8.924;2024-02-26T10:58:57;6.30;;;3.03;;
10134;SDS011;5107;48.850;8.924;2024-02-26T11:01:26;5.63;;;3.30;;
10134;SDS011;5107;48.850;8.924;2024-02-26T11:03:54;5.97;;;3.20;;
10134;SDS011;5107;48.850;8.924;2024-02-26T11:06:35;4.50;;;3.13;;
10134;SDS011;5107;48.850;8.924;2024-02-26T11:09:02;4.47;;;2.80;;
10134;SDS011;5107;48.850;8.924;2024-02-26T11:11:28;3.10;;;2.80;;
10134;SDS011;5107;48.850;8.924;2024-02-26T11:13:56;4.67;;;2.83;;
10134;SDS011;5107;48.850;8.924;2024-02-26T11:16:23;5.33;;;2.43;;
10134;SDS011;5107;48.850;8.924;2024-02-26T11:18:54;3.03;;;2.40;;
10134;SDS011;5107;48.850;8.924;2024-02-26T11:21:21;2.47;;;2.20;;
10134;SDS011;5107;48.850;8.924;2024-02-26T11:24:03;2.27;;;2.03;;
10134;SDS011;5107;48.850;8.924;2024-02-26T11:26:36;2.57;;;2.10;;
10134;SDS011;5107;48.850;8.924;2024-02-26T11:29:20;3.80;;;2.30;;
10134;SDS011;5107;48.850;8.924;2024-02-26T11:31:47;6.80;;;2.30;;
10134;SDS011;5107;48.850;8.924;2024-02-26T11:34:14;3.10;;;2.17;;
10134;SDS011;5107;48.850;8.924;2024-02-26T11:36:42;2.57;;;2.03;;
10134;SDS011;5107;48.850;8.924;2024-02-26T11:39:08;2.30;;;2.07;;
10134;SDS011;5107;48.850;8.924;2024-02-26T11:41:41;3.13;;;2.00;;
10134;SDS011;5107;48.850;8.924;2024-02-26T11:44:10;2.87;;;2.40;;
10134;SDS011;5107;48.850;8.924;2024-02-26T11:46:39;3.57;;;2.07;;
10134;SDS011;5107;48.850;8.924;2024-02-26T11:51:53;4.40;;;2.00;;
10134;SDS011;5107;48.850;8.924;2024-02-26T11:59:56;2.60;;;2.10;;
10134;SDS011;5107;48.850;8.924;2024-02-26T12:02:49;2.53;;;2.33;;
10134;SDS011;5107;48.850;8.924;2024-02-26T12:05:30;2.37;;;2.10;;
10134;SDS011;5107;48.850;8.924;2024-02-26T12:08:03;3.27;;;2.10;;
10134;SDS011;5107;48.850;8.924;2024-02-26T12:10:32;2.50;;;2.00;;
10134;SDS011;5107;48.850;8.924;2024-02-26T12:15:43;2.40;;;2.20;;
10134;SDS011;5107;48.850;8.924;2024-02-26T12:18:10;2.27;;;2.07;;
10134;SDS011;5107;48.850;8.924;2024-02-26T12:20:42;2.50;;;2.30;;
10134;SDS011;5107;48.850;8.924;2024-02-26T12:23:09;4.97;;;2.30;;
10134;SDS011;5107;48.850;8.924;2024-02-26T12:25:43;2.63;;;2.20;;
10134;SDS011;5107;48.850;8.924;2024-02-26T12:28:09;2.70;;;1.87;;
10134;SDS011;5107;48.850;8.924;2024-02-26T12:30:34;2.33;;;2.07;;
10134;SDS011;5107;48.850;8.924;2024-02-26T12:33:00;2.20;;;1.90;;
10134;SDS011;5107;48.850;8.924;2024-02-26T12:35:27;2.93;;;1.90;;
10134;SDS011;5107;48.850;8.924;2024-02-26T12:37:53;2.10;;;1.90;;
10134;SDS011;5107;48.850;8.924;2024-02-26T12:40:19;1.93;;;1.80;;
10134;SDS011;5107;48.850;8.924;2024-02-26T12:42:45;2.60;;;1.93;;
10134;SDS011;5107;48.850;8.924;2024-02-26T12:45:12;2.30;;;2.03;;
10134;SDS011;5107;48.850;8.924;2024-02-26T12:47:39;1.93;;;1.80;;
10134;SDS011;5107;48.850;8.924;2024-02-26T12:50:24;1.90;;;1.70;;
10134;SDS011;5107;48.850;8.924;2024-02-26T12:52:53;1.63;;;1.53;;
10134;SDS011;5107;48.850;8.924;2024-02-26T12:55:18;3.77;;;1.90;;
10134;SDS011;5107;48.850;8.924;2024-02-26T12:58:06;2.10;;;1.63;;
10134;SDS011;5107;48.850;8.924;2024-02-26T13:00:32;2.83;;;1.60;;
10134;SDS011;5107;48.850;8.924;2024-02-26T13:02:59;2.47;;;1.73;;
10134;SDS011;5107;48.850;8.924;2024-02-26T13:05:25;1.77;;;1.50;;
10134;SDS011;5107;48.850;8.924;2024-02-26T13:07:51;2.23;;;1.40;;
10134;SDS011;5107;48.850;8.924;2024-02-26T13:10:18;2.30;;;1.70;;
10134;SDS011;5107;48.850;8.924;2024-02-26T13:12:44;2.70;;;1.30;;
10134;SDS011;5107;48.850;8.924;2024-02-26T13:15:20;1.93;;;1.67;;
10134;SDS011;5107;48.850;8.924;2024-02-26T13:18:34;1.50;;;1.40;;
10134;SDS011;5107;48.850;8.924;2024-02-26T13:23:54;1.67;;;1.57;;
10134;SDS011;5107;48.850;8.924;2024-02-26T13:26:21;2.73;;;1.60;;
10134;SDS011;5107;48.850;8.924;2024-02-26T13:29:01;2.00;;;1.80;;
10134;SDS011;5107;48.850;8.924;2024-02-26T13:31:28;3.00;;;1.60;;
10134;SDS011;5107;48.850;8.924;2024-02-26T13:34:03;2.33;;;1.43;;
10134;SDS011;5107;48.850;8.924;2024-02-26T13:36:28;1.87;;;1.47;;
10134;SDS011;5107;48.850;8.924;2024-02-26T13:38:56;2.80;;;1.50;;
10134;SDS011;5107;48.850;8.924;2024-02-26T13:41:22;1.40;;;1.23;;
10134;SDS011;5107;48.850;8.924;2024-02-26T13:43:50;1.33;;;1.10;;
10134;SDS011;5107;48.850;8.924;2024-02-26T13:46:16;1.13;;;1.10;;
10134;SDS011;5107;48.850;8.924;2024-02-26T13:48:42;0.77;;;0.77;;
10134;SDS011;5107;48.850;8.924;2024-02-26T13:51:07;1.63;;;0.77;;
10134;SDS011;5107;48.850;8.924;2024-02-26T13:53:33;0.73;;;0.70;;
10134;SDS011;5107;48.850;8.924;2024-02-26T13:55:58;0.70;;;0.70;;
10134;SDS011;5107;48.850;8.924;2024-02-26T13:58:26;1.73;;;1.00;;
10134;SDS011;5107;48.850;8.924;2024-02-26T14:00:52;0.90;;;0.90;;
10134;SDS011;5107;48.850;8.924;2024-02-26T14:03:36;0.97;;;0.90;;
10134;SDS011;5107;48.850;8.924;2024-02-26T14:06:02;1.73;;;1.00;;
10134;SDS011;5107;48.850;8.924;2024-02-26T14:08:40;0.70;;;0.70;;
10134;SDS011;5107;48.850;8.924;2024-02-26T14:14:15;1.53;;;1.10;;
10134;SDS011;5107;48.850;8.924;2024-02-26T14:16:40;0.80;;;0.80;;
10134;SDS011;5107;48.850;8.924;2024-02-26T14:19:06;1.70;;;0.73;;
10134;SDS011;5107;48.850;8.924;2024-02-26T14:21:37;0.83;;;0.83;;
10134;SDS011;5107;48.850;8.924;2024-02-26T14:24:03;0.90;;;0.90;;
10134;SDS011;5107;48.850;8.924;2024-02-26T14:26:29;0.77;;;0.77;;
10134;SDS011;5107;48.850;8.924;2024-02-26T14:32:02;1.13;;;0.80;;
10134;SDS011;5107;48.850;8.924;2024-02-26T14:34:28;0.70;;;0.70;;
10134;SDS011;5107;48.850;8.924;2024-02-26T14:39:31;0.60;;;0.60;;
10134;SDS011;5107;48.850;8.924;2024-02-26T14:41:58;0.80;;;0.80;;
10134;SDS011;5107;48.850;8.924;2024-02-26T14:44:24;0.60;;;0.60;;
10134;SDS011;5107;48.850;8.924;2024-02-26T14:46:52;0.70;;;0.67;;
10134;SDS011;5107;48.850;8.924;2024-02-26T14:49:17;0.97;;;0.80;;
10134;SDS011;5107;48.850;8.924;2024-02-26T14:51:43;0.77;;;0.77;;
10134;SDS011;5107;48.850;8.924;2024-02-26T14:54:12;1.07;;;1.00;;
10134;SDS011;5107;48.850;8.924;2024-02-26T14:56:38;0.67;;;0.60;;
10134;SDS011;5107;48.850;8.924;2024-02-26T14:59:04;1.13;;;0.80;;
10134;SDS011;5107;48.850;8.924;2024-02-26T15:01:29;1.97;;;1.50;;
10134;SDS011;5107;48.850;8.924;2024-02-26T15:03:55;1.07;;;0.80;;
10134;SDS011;5107;48.850;8.924;2024-02-26T15:06:22;0.70;;;0.70;;
10134;SDS011;5107;48.850;8.924;2024-02-26T15:08:47;0.87;;;0.70;;
10134;SDS011;5107;48.850;8.924;2024-02-26T15:11:12;1.77;;;0.70;;
10134;SDS011;5107;48.850;8.924;2024-02-26T15:13:41;0.50;;;0.50;;
10134;SDS011;5107;48.850;8.924;2024-02-26T15:16:07;0.90;;;0.73;;
10134;SDS011;5107;48.850;8.924;2024-02-26T15:18:32;1.03;;;0.90;;
10134;SDS011;5107;48.850;8.924;2024-02-26T15:20:58;0.70;;;0.70;;
10134;SDS011;5107;48.850;8.924;2024-02-26T15:23:29;1.53;;;0.90;;
10134;SDS011;5107;48.850;8.924;2024-02-26T15:25:54;1.00;;;0.73;;
10134;SDS011;5107;48.850;8.924;2024-02-26T15:28:20;1.03;;;0.70;;
10134;SDS011;5107;48.850;8.924;2024-02-26T15:30:45;1.17;;;0.97;;
10134;SDS011;5107;48.850;8.924;2024-02-26T15:33:10;1.13;;;1.00;;
10134;SDS011;5107;48.850;8.924;2024-02-26T15:35:37;0.80;;;0.80;;
10134;SDS011;5107;48.850;8.924;2024-02-26T15:38:03;1.63;;;0.97;;
10134;SDS011;5107;48.850;8.924;2024-02-26T15:40:29;0.80;;;0.80;;
10134;SDS011;5107;48.850;8.924;2024-02-26T15:42:54;2.40;;;0.90;;
10134;SDS011;5107;48.850;8.924;2024-02-26T15:45:20;2.77;;;0.77;;
10134;SDS011;5107;48.850;8.924;2024-02-26T15:47:45;0.70;;;0.70;;